Accueil
METAR-TAF:

METAR-TAF

Aéroports :

Bric della Croce

Turin, Italie

latitude: 45-02N, longitude: 007-44E, altitude: 709 m

Observation

Le bulletin a été fait il y a 1 heure et 17 minutes, à 20:55 UTC
Vent 2 kt de nord/nord-est
Température 25°C
Humidité 61%
Pression 1019 hPa
Visibilité 10 km ou plus
pas de nuages en-dessous de 1500 mètres et pas de cumulonimbus.

METAR: LIMK 212055Z 03002KT CAVOK 25/17 Q1019 RMK SCT SCT130 VAL NIL VIS MIN 9999

Heure: 00:12 (22:12 UTC)


TAF: absent

Observations et prévisions météorologiques de plus de 4000 aéroports (messages METAR et TAF).

Les stations disponibles sont représentées par des disques jaunes et rouges sur la carte.

Passer la souris dessus pour voir le nom de la station.

Cliquer dessus pour voir les observations et prévisions météorologiques.

Pour changer de carte: cliquez sur les boutons verts avec une croix noire pour zoomer, sur le bouton vert avec un tiret pour effectuer un zoom arrière, ou sur les flèches vertes pour les cartes adjacentes.


METAR-TAF: